createdAt,value
2019-02-10T00:05:19.117Z,12.93
2019-02-10T00:11:23.658Z,6.60
2019-02-10T00:17:28.287Z,8.90
2019-02-10T00:23:32.837Z,11.03
2019-02-10T00:29:37.377Z,17.00
2019-02-10T00:35:41.917Z,11.30
2019-02-10T00:41:46.454Z,11.57
2019-02-10T00:47:50.995Z,8.83
2019-02-10T00:53:55.541Z,12.17
2019-02-10T01:00:00.366Z,8.73
2019-02-10T01:06:04.912Z,6.57
2019-02-10T01:12:10.128Z,16.20
2019-02-10T01:18:14.678Z,10.63
2019-02-10T01:24:19.922Z,10.50
2019-02-10T01:30:24.457Z,10.37
2019-02-10T01:36:29.077Z,12.90
2019-02-10T01:42:33.614Z,10.90
2019-02-10T01:48:38.246Z,5.30
2019-02-10T01:54:42.817Z,7.30
2019-02-10T02:00:47.440Z,11.33
2019-02-10T02:06:57.643Z,8.10
2019-02-10T02:12:58.313Z,16.10
2019-02-10T02:19:02.889Z,7.30
2019-02-10T02:25:10.250Z,15.00
2019-02-10T02:31:14.792Z,16.33
2019-02-10T02:37:19.393Z,9.07
2019-02-10T02:43:23.936Z,17.30
2019-02-10T02:49:28.469Z,7.00
2019-02-10T02:55:33.014Z,10.70
2019-02-10T03:01:37.907Z,8.60
2019-02-10T03:07:42.450Z,8.80
2019-02-10T03:13:47.711Z,5.57
2019-02-10T03:19:52.321Z,12.57
2019-02-10T03:25:56.878Z,17.50
2019-02-10T03:32:01.448Z,12.20
2019-02-10T03:38:06.030Z,8.33
2019-02-10T03:44:10.638Z,5.53
2019-02-10T03:50:15.285Z,9.53
2019-02-10T03:56:19.894Z,10.33
2019-02-10T04:02:24.527Z,17.37
2019-02-10T04:08:29.079Z,13.03
2019-02-10T04:14:33.653Z,10.27
2019-02-10T04:20:38.197Z,20.23
2019-02-10T04:26:42.757Z,9.40
2019-02-10T04:32:47.310Z,10.07
2019-02-10T04:38:51.867Z,19.13
2019-02-10T04:44:57.446Z,20.17
2019-02-10T04:51:01.988Z,8.93
2019-02-10T04:57:07.176Z,10.83
2019-02-10T05:03:11.727Z,32.47
2019-02-10T05:09:16.934Z,19.03
2019-02-10T05:15:21.477Z,17.47
2019-02-10T05:21:26.094Z,10.20
2019-02-10T05:27:30.695Z,12.13
2019-02-10T05:33:35.261Z,13.23
2019-02-10T05:39:39.823Z,10.27
2019-02-10T05:45:44.370Z,11.33
2019-02-10T05:51:48.903Z,9.87
2019-02-10T05:57:55.937Z,13.63
2019-02-10T06:04:00.502Z,10.07
2019-02-10T06:10:06.781Z,12.17
2019-02-10T06:16:11.401Z,11.30
2019-02-10T06:22:16.036Z,15.40
2019-02-10T06:28:20.580Z,7.97
2019-02-10T06:34:25.128Z,11.93
2019-02-10T06:40:29.684Z,14.80
2019-02-10T06:46:34.284Z,8.40
2019-02-10T06:52:38.896Z,19.47
2019-02-10T06:58:43.448Z,11.50
2019-02-10T07:04:48.003Z,7.17
2019-02-10T07:10:52.530Z,5.50
2019-02-10T07:17:16.682Z,5.30
2019-02-10T07:23:48.557Z,5.20
2019-02-10T07:30:09.618Z,11.17
2019-02-10T07:36:24.533Z,8.37
2019-02-10T07:42:55.878Z,6.33
2019-02-10T07:49:29.916Z,6.07
2019-02-10T07:55:44.852Z,8.40
2019-02-10T08:02:20.987Z,6.93
2019-02-10T08:08:52.439Z,7.63
2019-02-10T08:15:13.431Z,7.83
2019-02-10T08:21:34.496Z,4.90
2019-02-10T08:28:01.910Z,4.83
2019-02-10T08:34:19.837Z,9.00
2019-02-10T08:40:45.771Z,10.00
2019-02-10T08:46:58.009Z,7.00
2019-02-10T08:53:13.193Z,2.23
2019-02-10T08:59:17.890Z,4.97
2019-02-10T09:05:22.471Z,3.67
2019-02-10T09:11:26.984Z,3.57
2019-02-10T09:17:31.546Z,1.97
2019-02-10T09:23:36.104Z,1.77
2019-02-10T09:35:50.719Z,3.47
2019-02-10T09:41:55.343Z,4.77
2019-02-10T09:47:59.884Z,6.10
2019-02-10T09:54:04.443Z,6.70
2019-02-10T10:00:13.272Z,7.30
2019-02-10T10:06:17.802Z,3.00
2019-02-10T10:12:22.406Z,3.80
2019-02-10T10:18:26.955Z,4.20
2019-02-10T10:24:31.487Z,1.63
2019-02-10T10:30:36.191Z,4.27
2019-02-10T10:36:40.807Z,1.60
2019-02-10T10:42:45.391Z,11.43
2019-02-10T10:48:49.956Z,18.33
2019-02-10T10:54:54.511Z,3.57
2019-02-10T11:01:01.830Z,1.50
2019-02-10T11:07:06.493Z,1.77
2019-02-10T11:13:11.144Z,2.10
2019-02-10T11:19:15.707Z,2.17
2019-02-10T11:25:20.301Z,1.30
2019-02-10T11:31:24.865Z,2.30
2019-02-10T11:37:31.086Z,2.13
2019-02-10T11:43:35.954Z,5.70
2019-02-10T11:49:40.815Z,2.20
2019-02-10T11:55:45.436Z,1.83
2019-02-10T12:08:00.059Z,2.97
2019-02-10T12:14:04.678Z,1.43
2019-02-10T12:20:14.295Z,1.47
2019-02-10T12:26:20.313Z,2.10
2019-02-10T12:32:24.846Z,2.53
2019-02-10T12:38:29.393Z,2.73
2019-02-10T12:44:33.937Z,2.00
2019-02-10T12:50:38.487Z,1.73
2019-02-10T12:56:43.050Z,1.50
2019-02-10T13:02:47.696Z,2.20
2019-02-10T13:08:52.241Z,1.70
2019-02-10T13:14:56.790Z,1.43
2019-02-10T13:21:01.331Z,3.70
2019-02-10T13:27:05.950Z,1.50
2019-02-10T13:33:10.565Z,2.17
2019-02-10T13:39:15.429Z,1.90
2019-02-10T13:45:19.958Z,3.30
2019-02-10T13:51:24.516Z,4.90
2019-02-10T13:57:29.056Z,1.80
2019-02-10T14:03:33.609Z,1.40
2019-02-10T14:09:38.153Z,1.63
2019-02-10T14:15:42.708Z,1.67
2019-02-10T14:21:47.257Z,4.30
2019-02-10T14:27:51.806Z,8.40
2019-02-10T14:33:56.334Z,2.27
2019-02-10T14:40:00.890Z,4.17
2019-02-10T14:46:05.496Z,2.20
2019-02-10T14:52:10.037Z,1.80
2019-02-10T14:58:14.584Z,2.00
2019-02-10T15:04:19.201Z,1.90
2019-02-10T15:10:24.636Z,2.37
2019-02-10T15:16:29.545Z,2.80
2019-02-10T15:22:34.918Z,1.70
2019-02-10T15:28:39.524Z,2.07
2019-02-10T15:34:44.070Z,1.70
2019-02-10T15:40:52.566Z,1.80
2019-02-10T15:46:57.109Z,2.73
2019-02-10T15:53:01.657Z,0.93
2019-02-10T15:59:06.269Z,3.03
2019-02-10T16:05:10.977Z,3.40
2019-02-10T16:11:15.516Z,1.47
2019-02-10T16:17:20.084Z,7.50
2019-02-10T16:23:27.137Z,2.50
2019-02-10T16:29:32.015Z,4.20
2019-02-10T16:35:36.873Z,3.87
2019-02-10T16:41:41.496Z,3.50
2019-02-10T16:47:46.136Z,0.90
2019-02-10T16:53:50.686Z,3.90
2019-02-10T16:59:55.226Z,6.70
2019-02-10T17:05:59.778Z,4.33
2019-02-10T17:12:04.394Z,1.00
2019-02-10T17:18:08.935Z,1.50
2019-02-10T17:24:13.476Z,2.43
2019-02-10T17:30:20.749Z,1.03
2019-02-10T17:36:25.638Z,1.00
2019-02-10T17:42:30.172Z,1.40
2019-02-10T17:48:35.308Z,1.43
2019-02-10T17:54:39.855Z,8.53
2019-02-10T18:00:46.031Z,1.17
2019-02-10T18:06:53.446Z,2.10
2019-02-10T18:12:57.988Z,6.27
2019-02-10T18:19:12.961Z,1.10
2019-02-10T18:25:24.799Z,1.00
2019-02-10T18:31:33.400Z,0.83
2019-02-10T18:37:51.134Z,2.10
2019-02-10T18:44:12.953Z,1.03
2019-02-10T18:50:22.981Z,1.60
2019-02-10T18:56:29.155Z,1.33
2019-02-10T19:02:52.368Z,1.50
2019-02-10T19:09:03.743Z,1.10
2019-02-10T19:15:29.371Z,1.30
2019-02-10T19:21:35.558Z,1.20
2019-02-10T19:27:48.637Z,1.33
2019-02-10T19:34:00.832Z,1.10
2019-02-10T19:40:27.536Z,1.00
2019-02-10T19:46:44.914Z,0.87
2019-02-10T19:52:54.873Z,0.70
2019-02-10T19:59:10.083Z,0.70
2019-02-10T20:05:16.281Z,1.00
2019-02-10T20:11:28.114Z,1.00
2019-02-10T20:17:34.305Z,1.07
2019-02-10T20:23:44.866Z,0.70
2019-02-10T20:30:00.766Z,0.70
2019-02-10T20:36:21.914Z,1.23
2019-02-10T20:42:34.038Z,0.80
2019-02-10T20:48:38.367Z,1.07
2019-02-10T20:54:48.347Z,0.87
2019-02-10T21:00:54.540Z,1.33
2019-02-10T21:07:15.764Z,0.70
2019-02-10T21:13:21.949Z,0.90
2019-02-10T21:19:37.817Z,1.20
2019-02-10T21:25:52.865Z,1.30
2019-02-10T21:32:01.807Z,0.70
2019-02-10T21:38:23.979Z,1.00
2019-02-10T21:44:33.142Z,1.00
2019-02-10T21:50:37.694Z,0.70
2019-02-10T21:56:42.237Z,1.03
2019-02-10T22:02:48.631Z,0.80
2019-02-10T22:08:53.161Z,0.80
2019-02-10T22:14:57.716Z,0.80
2019-02-10T22:21:02.261Z,0.80
2019-02-10T22:27:06.808Z,0.80
2019-02-10T22:33:11.347Z,2.30
2019-02-10T22:39:15.883Z,1.10
2019-02-10T22:45:20.427Z,0.80
2019-02-10T22:51:27.616Z,0.70
2019-02-10T22:57:32.514Z,0.70
2019-02-10T23:03:37.200Z,0.87
2019-02-10T23:09:41.745Z,0.80
2019-02-10T23:15:46.297Z,0.80
2019-02-10T23:21:50.835Z,0.70
2019-02-10T23:27:55.379Z,0.70
2019-02-10T23:34:00.001Z,0.70
2019-02-10T23:40:05.978Z,1.00
2019-02-10T23:46:10.542Z,0.80
2019-02-10T23:52:15.243Z,0.80
2019-02-10T23:58:21.302Z,0.80
